Time;durP1;ratioP1;P1;durP2;ratioP2;P2;SDS_P1;SDS_P2;PMS_P1;PMS_P2;Temp;Humidity;BMP_temperature;BMP_pressure;BME280_temperature;BME280_humidity;BME280_pressure;Samples;Min_cycle;Max_cycle;Signal;HPM_P1;HPM_P2
2021/01/23 00:00:12;;;;;;;40.70;25.23;;;;;;;3.11;85.48;98517.66;120833;1150;104358;-81
2021/01/23 00:02:59;;;;;;;43.50;25.33;;;;;;;3.09;84.87;98524.59;120675;1150;103061;-81
2021/01/23 00:05:27;;;;;;;47.47;26.07;;;;;;;3.09;85.28;98516.86;120719;1150;104365;-81
2021/01/23 00:08:00;;;;;;;42.38;24.85;;;;;;;3.07;85.47;98516.06;120597;1151;104375;-81
2021/01/23 00:10:30;;;;;;;39.07;24.73;;;;;;;3.04;85.57;98517.81;120775;1151;103298;-81
2021/01/23 00:12:58;;;;;;;38.30;23.60;;;;;;;3.02;85.47;98517.02;120671;1150;104076;-80
2021/01/23 00:15:25;;;;;;;45.13;25.07;;;;;;;3.01;86.02;98515.34;120770;1150;104410;-79
2021/01/23 00:17:52;;;;;;;40.90;24.53;;;;;;;3.00;85.82;98525.69;120702;1149;104465;-80
2021/01/23 00:20:20;;;;;;;45.87;25.37;;;;;;;2.97;85.64;98521.47;120610;1151;104506;-81
2021/01/23 00:22:47;;;;;;;43.67;26.07;;;;;;;2.97;85.78;98516.32;120718;1150;104291;-80
2021/01/23 00:25:14;;;;;;;44.87;25.00;;;;;;;2.96;85.80;98517.21;120734;1151;104460;-80
2021/01/23 00:27:41;;;;;;;43.70;24.03;;;;;;;2.96;86.06;98514.63;120677;1151;104367;-81
2021/01/23 00:30:09;;;;;;;39.63;24.10;;;;;;;2.95;86.10;98528.40;120666;1151;104409;-80
2021/01/23 00:32:36;;;;;;;42.80;24.73;;;;;;;2.94;85.88;98542.16;120643;1151;104474;-80
2021/01/23 00:35:04;;;;;;;42.10;24.17;;;;;;;2.94;86.26;98541.32;120668;1150;104327;-81
2021/01/23 00:37:31;;;;;;;47.00;24.70;;;;;;;2.93;86.20;98544.78;120696;1150;104457;-81
2021/01/23 00:39:58;;;;;;;36.80;22.67;;;;;;;2.92;86.12;98543.10;120740;1151;104979;-81
2021/01/23 00:42:25;;;;;;;40.13;23.60;;;;;;;2.90;86.42;98543.14;120617;1151;104441;-81
2021/01/23 00:44:52;;;;;;;37.70;23.10;;;;;;;2.88;86.39;98533.78;120625;1149;104319;-81
2021/01/23 00:47:19;;;;;;;37.57;22.87;;;;;;;2.87;85.92;98540.66;120689;1150;104325;-80
2021/01/23 00:49:46;;;;;;;41.60;24.47;;;;;;;2.86;85.92;98538.95;120638;1151;104398;-80
2021/01/23 00:52:14;;;;;;;40.00;23.63;;;;;;;2.86;85.96;98544.09;120733;1150;104481;-80
2021/01/23 00:54:42;;;;;;;39.20;23.02;;;;;;;2.85;86.67;98536.41;120671;1150;104477;-80
2021/01/23 00:57:10;;;;;;;42.13;22.93;;;;;;;2.85;85.79;98534.69;120674;1150;104345;-80
2021/01/23 00:59:37;;;;;;;42.13;24.20;;;;;;;2.84;86.21;98535.58;120548;1151;104471;-81
2021/01/23 01:02:05;;;;;;;41.00;23.97;;;;;;;2.85;86.31;98533.84;120607;1150;104852;-81
2021/01/23 01:04:37;;;;;;;41.40;24.33;;;;;;;2.84;86.00;98539.88;120627;1151;104496;-80
2021/01/23 01:07:04;;;;;;;40.07;25.77;;;;;;;2.84;86.11;98543.30;120705;1150;104345;-80
2021/01/23 01:09:31;;;;;;;40.85;24.92;;;;;;;2.84;86.12;98534.73;120656;1151;104387;-80
2021/01/23 01:11:58;;;;;;;40.77;24.87;;;;;;;2.84;86.64;98548.45;120618;1150;104435;-81
2021/01/23 01:14:25;;;;;;;44.27;25.53;;;;;;;2.84;86.21;98533.00;120604;1151;104420;-81
2021/01/23 01:16:53;;;;;;;49.33;27.03;;;;;;;2.85;86.64;98536.41;120655;1151;104284;-80
2021/01/23 01:19:20;;;;;;;44.70;26.97;;;;;;;2.83;86.20;98541.61;120616;1151;105569;-80
2021/01/23 01:21:47;;;;;;;44.73;26.63;;;;;;;2.83;86.63;98541.61;120724;1150;104418;-80
2021/01/23 01:24:14;;;;;;;45.97;26.07;;;;;;;2.82;86.00;98529.63;120789;1151;104385;-80
2021/01/23 01:26:41;;;;;;;45.17;27.20;;;;;;;2.83;86.33;98536.46;120709;1150;103737;-80
2021/01/23 01:29:09;;;;;;;46.33;27.67;;;;;;;2.83;85.78;98543.34;120599;1151;104473;-81
2021/01/23 01:31:36;;;;;;;45.80;27.03;;;;;;;2.81;86.17;98540.81;120640;1150;104416;-81
2021/01/23 01:34:04;;;;;;;48.63;28.03;;;;;;;2.81;86.38;98537.39;120651;1150;104405;-80
2021/01/23 01:36:31;;;;;;;41.67;26.73;;;;;;;2.81;86.17;98540.81;120606;1151;104294;-81
2021/01/23 01:38:58;;;;;;;43.67;26.17;;;;;;;2.80;85.88;98549.42;120578;1151;104354;-81
2021/01/23 01:41:26;;;;;;;47.00;28.27;;;;;;;2.79;86.02;98560.61;120611;1150;104372;-80
2021/01/23 01:43:53;;;;;;;46.20;27.17;;;;;;;2.79;85.72;98559.77;120659;1150;104330;-80
2021/01/23 01:46:20;;;;;;;44.30;27.20;;;;;;;2.78;85.83;98568.38;120657;1151;104309;-81
2021/01/23 01:48:50;;;;;;;47.93;28.37;;;;;;;2.76;85.86;98567.59;120605;1150;104420;-81
2021/01/23 01:51:17;;;;;;;45.57;28.20;;;;;;;2.75;85.70;98568.47;120675;1151;104462;-81
2021/01/23 01:53:45;;;;;;;48.70;28.90;;;;;;;2.73;85.94;98568.52;120618;1150;104483;-81
2021/01/23 01:56:12;;;;;;;46.13;29.87;;;;;;;2.72;86.06;98579.70;120667;1149;104335;-80
2021/01/23 01:58:39;;;;;;;49.40;29.73;;;;;;;2.69;86.05;98575.48;120546;1151;104345;-81
2021/01/23 02:01:06;;;;;;;52.50;31.10;;;;;;;2.68;85.86;98576.34;120697;1151;104305;-80
2021/01/23 02:03:49;;;;;;;49.83;29.37;;;;;;;2.66;85.83;98575.54;120616;1151;104525;-80
2021/01/23 02:06:34;;;;;;;50.63;29.97;;;;;;;2.64;85.62;98571.32;120686;1151;104442;-80
2021/01/23 02:09:14;;;;;;;51.63;30.63;;;;;;;2.62;85.94;98570.52;120592;1151;104375;-80
2021/01/23 02:11:52;;;;;;;53.80;31.37;;;;;;;2.58;85.73;98574.07;120715;1150;104406;-81
2021/01/23 02:14:27;;;;;;;52.47;31.87;;;;;;;2.56;85.73;98576.69;120698;1150;104497;-80
2021/01/23 02:16:55;;;;;;;49.20;30.95;;;;;;;2.55;85.59;98575.00;120707;1150;103132;-81
2021/01/23 02:19:50;;;;;;;54.67;32.83;;;;;;;2.53;85.80;98586.23;120667;1150;104489;-80
2021/01/23 02:22:25;;;;;;;55.80;33.80;;;;;;;2.49;85.77;98580.29;120635;1150;104243;-80
2021/01/23 02:24:54;;;;;;;55.27;33.83;;;;;;;2.45;85.88;98577.84;120638;1150;104367;-81
2021/01/23 02:27:46;;;;;;;53.33;32.23;;;;;;;2.43;85.71;98588.17;120684;1150;104407;-80
2021/01/23 02:30:22;;;;;;;53.77;33.13;;;;;;;2.40;85.59;98583.96;120624;1150;104381;-80
2021/01/23 02:32:57;;;;;;;48.27;32.20;;;;;;;2.38;85.51;98578.02;120632;1150;104326;-81
2021/01/23 02:35:26;;;;;;;51.70;32.70;;;;;;;2.37;85.62;98585.77;120708;1151;104426;-80
2021/01/23 02:37:55;;;;;;;50.27;30.87;;;;;;;2.36;85.47;98584.09;120771;1150;104985;-80
2021/01/23 02:40:22;;;;;;;55.23;32.80;;;;;;;2.34;85.70;98581.55;120704;1151;104330;-80
2021/01/23 02:42:49;;;;;;;51.70;32.65;;;;;;;2.33;85.58;98587.55;120588;1151;104237;-81
2021/01/23 02:45:17;;;;;;;52.85;33.00;;;;;;;2.32;85.26;98577.30;120652;1151;104401;-81
2021/01/23 02:47:46;;;;;;;54.27;33.50;;;;;;;2.32;85.62;98585.02;120680;1148;104349;-81
2021/01/23 02:50:14;;;;;;;49.13;31.40;;;;;;;2.31;85.41;98591.89;120752;1150;104290;-80
2021/01/23 02:53:07;;;;;;;54.43;33.50;;;;;;;2.29;85.75;98591.09;120729;1148;103029;-80
2021/01/23 02:55:39;;;;;;;50.20;32.80;;;;;;;2.26;85.40;98604.04;120730;1148;104316;-81
2021/01/23 02:58:08;;;;;;;54.23;32.57;;;;;;;2.24;85.46;98615.25;120686;1151;104361;-80
2021/01/23 03:00:37;;;;;;;55.80;33.97;;;;;;;2.21;85.39;98603.31;120657;1148;104399;-80
2021/01/23 03:03:05;;;;;;;52.77;31.63;;;;;;;2.19;85.43;98607.66;120746;1150;104398;-80
2021/01/23 03:05:34;;;;;;;55.07;32.90;;;;;;;2.19;85.36;98612.80;120674;1148;103233;-80
2021/01/23 03:08:03;;;;;;;50.37;32.30;;;;;;;2.15;85.46;98600.03;120776;1148;105538;-80
2021/01/23 03:10:42;;;;;;;53.73;32.07;;;;;;;2.15;85.42;98611.16;120633;1148;104514;-81
2021/01/23 03:13:11;;;;;;;53.77;32.07;;;;;;;2.14;85.42;98619.77;120659;1148;105084;-80
2021/01/23 03:15:41;;;;;;;52.33;32.53;;;;;;;2.11;85.49;98618.11;120712;1150;104342;-81
2021/01/23 03:18:09;;;;;;;54.77;32.67;;;;;;;2.10;85.35;98606.14;120693;1148;104385;-81
2021/01/23 03:20:37;;;;;;;50.63;31.33;;;;;;;2.10;85.66;98597.58;120718;1150;104942;-81
2021/01/23 03:23:05;;;;;;;50.17;31.17;;;;;;;2.10;85.86;98600.15;120629;1150;104497;-81
2021/01/23 03:25:32;;;;;;;49.77;30.90;;;;;;;2.09;85.43;98604.45;120683;1150;103060;-81
2021/01/23 03:28:00;;;;;;;48.20;30.47;;;;;;;2.10;85.45;98600.15;120646;1151;104462;-81
2021/01/23 03:30:29;;;;;;;48.80;30.83;;;;;;;2.09;85.33;98601.88;120679;1148;105873;-81
2021/01/23 03:32:57;;;;;;;49.17;32.70;;;;;;;2.09;85.69;98599.30;120695;1148;104384;-81
2021/01/23 03:35:25;;;;;;;50.87;30.87;;;;;;;2.10;85.27;98597.58;120620;1148;104548;-81
2021/01/23 03:37:53;;;;;;;47.40;30.17;;;;;;;2.11;85.27;98601.84;120728;1148;104239;-81
2021/01/23 03:40:20;;;;;;;50.60;31.70;;;;;;;2.10;85.44;98603.56;120658;1148;103053;-80
2021/01/23 03:42:47;;;;;;;51.20;31.23;;;;;;;2.10;85.45;98607.86;120676;1150;104458;-81
2021/01/23 03:45:15;;;;;;;48.70;30.33;;;;;;;2.11;85.20;98601.84;120665;1148;104425;-80
2021/01/23 03:47:43;;;;;;;48.93;30.40;;;;;;;2.09;85.39;98594.16;120662;1148;104368;-80
2021/01/23 03:50:10;;;;;;;47.47;29.77;;;;;;;2.09;85.34;98595.89;120659;1148;104390;-80
2021/01/23 03:52:38;;;;;;;45.27;28.30;;;;;;;2.09;85.28;98601.03;120672;1148;104970;-81
2021/01/23 03:55:07;;;;;;;45.80;29.53;;;;;;;2.09;85.27;98595.89;120740;1150;104394;-80
2021/01/23 03:57:35;;;;;;;47.30;30.20;;;;;;;2.08;85.54;98601.92;120696;1148;103201;-80
2021/01/23 04:00:06;;;;;;;48.03;30.67;;;;;;;2.08;85.49;98579.62;120644;1148;105496;-80
2021/01/23 04:02:35;;;;;;;44.60;27.70;;;;;;;2.09;85.48;98577.89;120694;1148;104301;-80
2021/01/23 04:05:04;;;;;;;52.07;32.33;;;;;;;2.10;85.42;98574.44;120674;1148;104314;-80
2021/01/23 04:07:32;;;;;;;47.43;29.70;;;;;;;2.10;85.45;98564.14;120697;1148;104814;-80
2021/01/23 04:09:59;;;;;;;49.47;30.07;;;;;;;2.10;85.29;98577.01;120718;1148;104410;-80
2021/01/23 04:12:32;;;;;;;48.15;30.50;;;;;;;2.10;85.04;98572.70;120624;1149;104314;-81
2021/01/23 04:14:59;;;;;;;48.07;31.20;;;;;;;2.08;85.35;98563.34;120682;1150;104385;-81
2021/01/23 04:17:26;;;;;;;47.57;30.27;;;;;;;2.07;85.45;98552.22;120672;1148;104420;-80
2021/01/23 04:19:54;;;;;;;52.60;31.73;;;;;;;2.06;85.11;98555.67;120654;1150;105869;-80
2021/01/23 04:22:21;;;;;;;50.10;29.97;;;;;;;2.05;85.66;98556.55;120596;1151;104337;-80
2021/01/23 04:24:49;;;;;;;44.67;28.47;;;;;;;2.05;85.02;98548.00;120646;1148;104379;-80
2021/01/23 04:27:16;;;;;;;46.17;28.87;;;;;;;2.03;85.44;98545.47;120783;1148;104338;-79
2021/01/23 04:29:43;;;;;;;45.40;29.17;;;;;;;2.04;85.47;98538.59;120727;1148;104358;-80
2021/01/23 04:32:10;;;;;;;45.33;29.67;;;;;;;2.06;85.46;98544.54;120724;1148;104397;-81
2021/01/23 04:34:38;;;;;;;46.53;29.85;;;;;;;2.06;85.29;98542.81;120686;1148;104444;-80
2021/01/23 04:37:05;;;;;;;43.33;28.10;;;;;;;2.07;85.67;98551.38;120569;1150;104589;-80
2021/01/23 04:39:32;;;;;;;47.07;28.97;;;;;;;2.07;85.06;98543.66;120728;1150;104281;-80
2021/01/23 04:41:59;;;;;;;45.73;28.47;;;;;;;2.09;85.32;98534.17;120745;1148;104393;-80
2021/01/23 04:44:26;;;;;;;44.43;27.60;;;;;;;2.10;85.05;98531.56;120678;1151;104908;-79
2021/01/23 04:46:53;;;;;;;43.80;28.13;;;;;;;2.13;85.04;98530.63;120633;1148;104460;-80
2021/01/23 04:49:21;;;;;;;46.27;28.50;;;;;;;2.16;85.02;98524.59;120708;1148;104467;-81
2021/01/23 04:51:48;;;;;;;41.67;28.20;;;;;;;2.19;84.93;98530.50;120699;1148;104317;-80
2021/01/23 04:54:15;;;;;;;47.77;29.20;;;;;;;2.21;84.79;98528.72;120683;1148;103158;-81
2021/01/23 04:56:42;;;;;;;50.25;29.65;;;;;;;2.21;85.00;98523.58;120680;1151;104313;-81
2021/01/23 04:59:09;;;;;;;43.80;29.27;;;;;;;2.21;84.92;98508.15;120672;1151;104351;-81
2021/01/23 05:01:36;;;;;;;49.48;30.48;;;;;;;2.22;84.98;98514.14;120791;1150;104359;-81
2021/01/23 05:04:04;;;;;;;43.63;28.90;;;;;;;2.21;84.87;98499.59;120717;1148;104397;-81
2021/01/23 05:06:31;;;;;;;47.27;29.97;;;;;;;2.22;84.63;98503.84;120638;1150;104381;-81
2021/01/23 05:08:58;;;;;;;46.43;30.30;;;;;;;2.23;85.14;98497.81;120666;1148;104498;-80
2021/01/23 05:11:46;;;;;;;49.23;30.35;;;;;;;2.23;84.95;98490.95;120737;1148;104297;-81
2021/01/23 05:14:15;;;;;;;44.90;29.20;;;;;;;2.25;84.92;98486.59;120684;1150;101818;-81
2021/01/23 05:16:43;;;;;;;45.60;29.33;;;;;;;2.26;85.11;98472.85;120756;1150;104393;-81
2021/01/23 05:19:10;;;;;;;48.20;30.13;;;;;;;2.28;85.12;98483.94;120694;1150;104417;-81
2021/01/23 05:21:38;;;;;;;50.53;30.30;;;;;;;2.30;85.23;98474.45;120674;1150;104151;-80
2021/01/23 05:24:12;;;;;;;47.03;30.77;;;;;;;2.32;85.15;98475.25;120749;1148;104366;-80
2021/01/23 05:26:41;;;;;;;45.03;29.73;;;;;;;2.37;84.81;98475.14;120742;1151;104456;-80
2021/01/23 05:29:14;;;;;;;46.77;29.93;;;;;;;2.40;84.82;98473.33;120630;1151;104377;-80
2021/01/23 05:31:43;;;;;;;50.33;30.20;;;;;;;2.42;84.98;98460.42;120704;1148;104406;-80
2021/01/23 05:34:31;;;;;;;48.47;28.67;;;;;;;2.43;84.99;98457.80;120564;1148;104337;-80
2021/01/23 05:36:59;;;;;;;46.27;30.60;;;;;;;2.45;84.97;98480.06;120703;1148;104366;-80
2021/01/23 05:39:48;;;;;;;44.60;29.70;;;;;;;2.45;85.08;98483.48;120666;1148;104207;-80
2021/01/23 05:42:20;;;;;;;48.00;29.37;;;;;;;2.45;84.98;98485.22;120700;1148;104375;-80
2021/01/23 05:45:13;;;;;;;47.10;29.53;;;;;;;2.46;85.68;98489.47;120570;1150;103643;-80
2021/01/23 05:47:40;;;;;;;45.60;28.57;;;;;;;2.45;85.56;98490.36;120674;1148;104401;-80
2021/01/23 05:50:10;;;;;;;46.53;28.70;;;;;;;2.45;85.75;98501.50;120746;1148;104346;-81
2021/01/23 05:52:37;;;;;;;45.80;29.83;;;;;;;2.43;85.86;98509.26;120694;1149;104391;-81
2021/01/23 05:55:06;;;;;;;48.77;28.93;;;;;;;2.42;85.59;98489.56;120657;1148;104375;-81
2021/01/23 05:57:33;;;;;;;50.47;29.33;;;;;;;2.42;85.56;98475.85;120677;1149;104382;-80
2021/01/23 06:00:02;;;;;;;47.53;28.50;;;;;;;2.46;85.42;98476.61;120664;1148;104419;-80
2021/01/23 06:02:33;;;;;;;45.87;28.97;;;;;;;2.49;85.68;98476.52;120667;1150;104467;-80
2021/01/23 06:05:02;;;;;;;47.47;28.77;;;;;;;2.52;85.93;98482.45;120601;1148;104378;-79
2021/01/23 06:07:47;;;;;;;44.03;28.53;;;;;;;2.56;86.12;98488.34;120650;1148;104291;-80
2021/01/23 06:10:23;;;;;;;49.57;29.40;;;;;;;2.58;86.13;98492.56;120591;1148;105510;-80
2021/01/23 06:12:53;;;;;;;47.67;28.80;;;;;;;2.61;86.27;98512.22;120565;1148;104188;-79
2021/01/23 06:15:37;;;;;;;54.67;30.63;;;;;;;2.60;86.15;98513.95;120640;1148;104490;-80
2021/01/23 06:18:22;;;;;;;42.93;28.13;;;;;;;2.61;85.95;98507.91;120567;1148;104872;-80
2021/01/23 06:20:52;;;;;;;44.90;28.23;;;;;;;2.62;86.32;98513.90;120595;1148;104356;-80
2021/01/23 06:23:21;;;;;;;44.40;28.50;;;;;;;2.64;86.80;98491.53;120583;1148;104553;-80
2021/01/23 06:25:51;;;;;;;43.97;26.80;;;;;;;2.68;86.59;98500.84;120598;1148;101927;-80
2021/01/23 06:28:40;;;;;;;43.80;28.30;;;;;;;2.71;86.68;98508.52;120612;1148;104438;-81
2021/01/23 06:31:23;;;;;;;46.23;28.23;;;;;;;2.75;86.91;98514.41;120600;1150;104265;-81
2021/01/23 06:33:51;;;;;;;43.13;27.80;;;;;;;2.75;86.90;98504.95;120580;1148;104449;-81
2021/01/23 06:36:18;;;;;;;45.60;28.10;;;;;;;2.77;86.86;98505.75;120579;1148;104436;-81
2021/01/23 06:39:21;;;;;;;40.97;28.27;;;;;;;2.80;86.87;98495.36;120646;1148;103665;-81
2021/01/23 06:41:48;;;;;;;42.70;28.30;;;;;;;2.83;87.36;98472.09;120480;1153;104320;-81
2021/01/23 06:44:18;;;;;;;43.07;28.83;;;;;;;2.85;87.30;98454.87;120427;1153;104430;-81
2021/01/23 06:46:49;;;;;;;44.70;27.97;;;;;;;2.90;87.50;98447.03;120459;1153;104332;-80
2021/01/23 06:49:17;;;;;;;47.83;28.10;;;;;;;2.95;87.66;98451.14;120439;1153;104354;-81
2021/01/23 06:51:44;;;;;;;43.50;28.13;;;;;;;2.98;87.50;98451.05;119963;1154;104898;-80
2021/01/23 06:54:16;;;;;;;46.13;28.20;;;;;;;3.04;87.17;98456.00;120472;1153;104374;-81
2021/01/23 06:56:51;;;;;;;45.00;29.00;;;;;;;3.07;87.08;98456.83;120425;1152;104978;-81
2021/01/23 06:59:22;;;;;;;46.20;27.85;;;;;;;3.10;86.83;98459.30;120474;1154;104474;-81
2021/01/23 07:02:01;;;;;;;44.60;28.70;;;;;;;3.14;87.25;98455.73;120479;1153;104548;-81
2021/01/23 07:04:32;;;;;;;43.67;27.77;;;;;;;3.17;86.93;98440.18;120431;1153;104509;-81
2021/01/23 07:07:05;;;;;;;46.17;28.27;;;;;;;3.18;87.01;98431.56;120193;1153;104414;-81
2021/01/23 07:09:52;;;;;;;44.00;27.50;;;;;;;3.22;86.94;98448.60;120267;1153;104324;-80
2021/01/23 07:12:59;;;;;;;;;;;;;;;3.23;87.34;98439.98;119995;1153;104349;-81
2021/01/23 07:15:29;;;;;;;49.37;30.20;;;;;;;3.23;87.58;98439.98;119839;1157;104474;-81
2021/01/23 07:17:56;;;;;;;43.90;28.10;;;;;;;3.23;87.87;98430.55;120448;1153;104680;-81
2021/01/23 07:20:24;;;;;;;43.63;29.03;;;;;;;3.26;87.98;98445.06;120482;1153;104376;-81
2021/01/23 07:22:57;;;;;;;45.03;28.73;;;;;;;3.27;87.66;98446.75;120030;1154;104495;-80
2021/01/23 07:25:24;;;;;;;48.40;29.43;;;;;;;3.28;87.85;98448.43;120513;1153;102284;-81
2021/01/23 07:27:52;;;;;;;45.33;29.70;;;;;;;3.32;88.04;98440.55;120467;1153;104585;-81
2021/01/23 07:30:19;;;;;;;45.27;29.10;;;;;;;3.38;88.27;98438.66;120457;1153;105033;-81
2021/01/23 07:32:47;;;;;;;46.90;28.50;;;;;;;3.43;88.25;98440.22;120519;1154;104642;-82
2021/01/23 07:35:17;;;;;;;45.60;29.25;;;;;;;3.50;88.86;98435.70;120484;1153;104578;-81
2021/01/23 07:37:45;;;;;;;45.23;28.80;;;;;;;3.57;88.86;98429.44;120531;1153;104320;-81
2021/01/23 07:40:17;;;;;;;41.73;28.53;;;;;;;3.64;88.79;98411.16;119999;1154;104484;-81
2021/01/23 07:42:44;;;;;;;41.20;26.90;;;;;;;3.72;89.03;98397.16;120497;1153;104297;-81
2021/01/23 07:45:14;;;;;;;40.83;28.00;;;;;;;3.78;88.77;98408.13;120531;1153;104331;-81
2021/01/23 07:47:42;;;;;;;42.47;27.53;;;;;;;3.86;89.25;98410.42;120515;1150;104462;-81
2021/01/23 07:50:14;;;;;;;38.37;27.70;;;;;;;3.91;88.56;98398.20;120590;1150;104320;-81
2021/01/23 07:52:41;;;;;;;39.57;27.53;;;;;;;3.94;88.50;98395.52;120595;1150;102947;-82
2021/01/23 07:55:09;;;;;;;43.17;26.97;;;;;;;3.98;88.92;98381.64;120631;1151;104111;-81
2021/01/23 07:57:36;;;;;;;42.03;26.73;;;;;;;4.00;88.30;98379.84;120594;1150;104442;-81
2021/01/23 08:00:19;;;;;;;38.70;26.55;;;;;;;4.03;87.92;98395.20;120639;1150;104810;-81
2021/01/23 08:02:51;;;;;;;40.27;28.07;;;;;;;4.04;87.76;98393.47;120563;1151;104537;-81
2021/01/23 08:05:21;;;;;;;40.05;26.85;;;;;;;4.03;88.68;98379.73;120650;1150;102484;-81
2021/01/23 08:07:50;;;;;;;42.83;26.73;;;;;;;4.03;88.73;98390.05;120649;1150;104492;-81
2021/01/23 08:10:19;;;;;;;41.23;27.17;;;;;;;4.02;88.34;98375.47;120631;1150;104481;-82
2021/01/23 08:12:50;;;;;;;39.45;27.55;;;;;;;4.01;88.85;98373.78;120672;1151;104423;-81
2021/01/23 08:15:25;;;;;;;41.50;28.70;;;;;;;4.02;88.32;98379.78;120760;1150;104317;-81
2021/01/23 08:17:54;;;;;;;41.80;28.30;;;;;;;4.02;88.76;98380.63;120714;1150;104350;-81
2021/01/23 08:20:38;;;;;;;39.77;28.60;;;;;;;4.02;88.30;98359.16;120725;1150;104407;-82
2021/01/23 08:23:06;;;;;;;41.00;28.37;;;;;;;4.04;88.89;98363.36;120543;1151;104373;-81
2021/01/23 08:25:51;;;;;;;46.03;28.43;;;;;;;4.06;88.79;98358.98;120583;1150;104419;-81
2021/01/23 08:28:40;;;;;;;41.33;28.67;;;;;;;4.07;89.18;98352.08;120604;1151;104377;-81
2021/01/23 08:31:23;;;;;;;42.63;29.23;;;;;;;4.09;89.19;98361.44;120638;1150;104434;-81
2021/01/23 08:33:56;;;;;;;44.60;28.40;;;;;;;4.11;88.94;98380.28;120702;1149;104369;-81
2021/01/23 08:36:27;;;;;;;39.83;27.40;;;;;;;4.13;88.99;98351.84;120549;1151;104362;-82
2021/01/23 08:39:04;;;;;;;42.30;28.50;;;;;;;4.15;89.13;98356.08;120612;1151;105159;-81
2021/01/23 08:41:35;;;;;;;;;;;;;;;4.16;88.55;98347.44;120672;1150;104348;-81
2021/01/23 08:44:04;;;;;;;42.80;27.50;;;;;;;4.21;89.11;98349.84;120794;1150;104341;-81
2021/01/23 08:46:31;;;;;;;43.53;27.77;;;;;;;4.23;89.27;98353.20;120545;1150;104265;-81
2021/01/23 08:49:00;;;;;;;39.30;27.57;;;;;;;4.26;88.92;98345.35;120700;1150;104451;-82
2021/01/23 08:51:29;;;;;;;37.37;27.50;;;;;;;4.30;88.80;98333.17;120537;1148;104184;-81
2021/01/23 08:53:56;;;;;;;40.83;26.90;;;;;;;4.32;88.80;98352.05;120658;1148;104320;-81
2021/01/23 08:56:23;;;;;;;37.45;26.45;;;;;;;4.33;88.95;98344.24;120652;1150;104311;-80
2021/01/23 08:58:51;;;;;;;40.97;27.70;;;;;;;4.36;88.76;98338.96;120604;1150;104393;-80
2021/01/23 09:01:18;;;;;;;40.83;27.47;;;;;;;4.39;88.16;98338.00;120602;1148;104394;-80
2021/01/23 09:03:45;;;;;;;40.57;28.47;;;;;;;4.40;88.54;98352.59;120653;1148;104412;-81
2021/01/23 09:06:13;;;;;;;42.90;27.43;;;;;;;4.42;88.02;98353.36;120643;1148;102265;-82
2021/01/23 09:08:40;;;;;;;40.85;27.85;;;;;;;4.44;88.62;98349.83;120643;1148;104505;-82
2021/01/23 09:11:07;;;;;;;34.80;26.07;;;;;;;4.47;87.98;98361.77;120593;1148;104320;-81
2021/01/23 09:13:34;;;;;;;40.77;26.70;;;;;;;4.50;87.90;98359.10;120642;1148;104343;-82
2021/01/23 09:16:02;;;;;;;38.00;25.65;;;;;;;4.55;88.38;98370.09;120728;1148;103147;-82
2021/01/23 09:18:29;;;;;;;38.87;26.40;;;;;;;4.60;88.28;98342.34;120617;1150;104509;-81
2021/01/23 09:20:56;;;;;;;38.47;26.60;;;;;;;4.66;87.58;98347.27;120532;1150;104461;-81
2021/01/23 09:23:23;;;;;;;38.53;25.73;;;;;;;4.71;87.40;98324.70;120663;1148;104351;-82
2021/01/23 09:25:50;;;;;;;34.40;24.47;;;;;;;4.79;87.64;98327.81;120628;1148;104871;-82
2021/01/23 09:28:18;;;;;;;32.70;24.15;;;;;;;4.87;87.78;98344.77;120680;1148;104326;-81
2021/01/23 09:30:45;;;;;;;36.20;24.20;;;;;;;4.93;86.88;98326.44;120637;1148;104425;-82
2021/01/23 09:33:13;;;;;;;39.10;23.67;;;;;;;5.01;86.70;98337.30;120641;1148;104313;-81
2021/01/23 09:35:40;;;;;;;32.75;23.67;;;;;;;5.07;87.10;98327.57;120629;1150;104343;-81
2021/01/23 09:38:07;;;;;;;31.97;23.83;;;;;;;5.13;86.89;98324.73;120665;1148;104420;-82
2021/01/23 09:40:35;;;;;;;32.70;23.87;;;;;;;5.19;86.00;98307.28;120525;1148;104370;-81
2021/01/23 09:43:02;;;;;;;28.87;22.23;;;;;;;5.23;86.55;98304.53;120697;1148;104335;-82
2021/01/23 09:45:30;;;;;;;30.37;22.27;;;;;;;5.28;85.75;98306.92;120685;1150;104384;-81
2021/01/23 09:47:57;;;;;;;31.37;21.87;;;;;;;5.29;85.98;98301.68;120610;1150;104319;-81
2021/01/23 09:50:39;;;;;;;32.80;21.23;;;;;;;5.31;85.91;98325.72;120707;1148;104438;-81
2021/01/23 09:53:07;;;;;;;29.13;21.50;;;;;;;5.31;85.49;98330.89;120610;1148;104434;-81
2021/01/23 09:55:34;;;;;;;29.30;21.17;;;;;;;5.32;85.59;98304.13;120605;1150;104551;-81
2021/01/23 09:58:01;;;;;;;28.67;20.37;;;;;;;5.32;85.00;98322.23;120681;1150;104294;-82
2021/01/23 10:00:29;;;;;;;29.70;21.00;;;;;;;5.33;85.24;98302.39;120666;1150;104479;-81
2021/01/23 10:02:56;;;;;;;27.17;20.30;;;;;;;5.31;84.93;98297.28;120641;1148;104345;-82
2021/01/23 10:05:24;;;;;;;27.83;20.03;;;;;;;5.32;85.34;98305.88;120663;1150;104557;-82
2021/01/23 10:07:51;;;;;;;30.33;20.83;;;;;;;5.32;85.43;98304.13;120597;1150;104675;-81
2021/01/23 10:10:18;;;;;;;28.97;20.10;;;;;;;5.32;84.86;98322.23;120535;1151;104397;-81
2021/01/23 10:12:45;;;;;;;28.17;20.62;;;;;;;5.32;85.37;98313.62;120733;1148;104375;-81
2021/01/23 10:15:13;;;;;;;30.35;20.25;;;;;;;5.32;85.35;98304.13;120647;1150;104449;-81
2021/01/23 10:17:40;;;;;;;25.33;20.77;;;;;;;5.33;84.80;98298.05;120626;1148;103373;-81
2021/01/23 10:20:08;;;;;;;27.93;20.15;;;;;;;5.34;84.62;98294.56;120596;1148;104420;-81
2021/01/23 10:22:35;;;;;;;28.83;21.23;;;;;;;5.35;84.78;98296.24;120619;1148;104392;-81
2021/01/23 10:25:04;;;;;;;28.37;20.23;;;;;;;5.35;85.30;98298.83;120612;1148;104396;-81
2021/01/23 10:27:32;;;;;;;28.37;20.80;;;;;;;5.36;84.52;98292.75;120652;1148;104764;-81
2021/01/23 10:30:00;;;;;;;30.13;21.10;;;;;;;5.36;84.77;98292.75;120617;1148;104342;-81
2021/01/23 10:32:28;;;;;;;29.17;20.73;;;;;;;5.36;84.81;98289.33;120608;1148;105152;-81
2021/01/23 10:34:55;;;;;;;31.03;20.97;;;;;;;5.35;84.89;98285.06;120683;1148;104369;-81
2021/01/23 10:37:22;;;;;;;31.53;21.47;;;;;;;5.33;85.32;98292.05;120621;1148;103131;-81
2021/01/23 10:39:49;;;;;;;26.43;20.27;;;;;;;5.32;84.72;98280.87;120677;1150;106820;-81
2021/01/23 10:42:16;;;;;;;30.47;21.23;;;;;;;5.31;84.61;98294.70;120564;1150;104397;-81
2021/01/23 10:44:43;;;;;;;28.37;20.67;;;;;;;5.31;84.61;98279.19;120624;1148;104303;-81
2021/01/23 10:47:12;;;;;;;29.00;19.93;;;;;;;5.31;84.56;98274.02;120746;1148;101972;-82
2021/01/23 10:49:39;;;;;;;27.77;19.83;;;;;;;5.33;84.66;98281.70;120728;1148;104455;-81
2021/01/23 10:52:07;;;;;;;27.55;20.00;;;;;;;5.34;84.81;98268.72;120660;1148;104466;-81
2021/01/23 10:54:34;;;;;;;31.93;19.93;;;;;;;5.34;84.81;98268.72;120665;1148;104373;-80
2021/01/23 10:57:05;;;;;;;26.63;19.73;;;;;;;5.33;84.96;98267.03;120676;1150;102436;-81
2021/01/23 10:59:33;;;;;;;30.93;19.97;;;;;;;5.32;85.32;98272.27;120720;1148;103277;-81
2021/01/23 11:02:00;;;;;;;32.47;21.43;;;;;;;5.31;85.29;98279.19;120746;1151;104968;-81
2021/01/23 11:04:28;;;;;;;27.80;20.83;;;;;;;5.29;84.69;98275.83;120684;1148;104374;-81
2021/01/23 11:06:56;;;;;;;28.57;20.03;;;;;;;5.29;84.79;98300.84;120692;1148;104949;-81
2021/01/23 11:09:23;;;;;;;29.92;20.52;;;;;;;5.27;85.14;98282.81;120665;1148;105146;-81
2021/01/23 11:11:50;;;;;;;29.77;20.50;;;;;;;5.26;85.31;98278.55;120754;1150;104377;-81
2021/01/23 11:14:17;;;;;;;31.33;20.73;;;;;;;5.24;85.08;98288.12;120718;1148;104457;-81
2021/01/23 11:16:44;;;;;;;28.73;21.13;;;;;;;5.22;86.08;98287.34;120606;1150;104336;-81
2021/01/23 11:19:12;;;;;;;29.43;22.10;;;;;;;5.21;86.12;98283.08;120732;1148;104357;-81
2021/01/23 11:21:44;;;;;;;33.60;22.50;;;;;;;5.20;85.29;98281.38;120772;1148;104425;-81